Royer Lake, Indiana
Current Conditions -  °F | °C
As of 7:55 AM on Saturday 25 Oct 2014 (Local Time) from KIRS Reporting Station
Haze Haze  
Wind Chill: 54°   Ceiling: 1000
Heat Index: 54°   Visibility: 5mi
Dew Point: 52°   Wind: 8mph
Humidity: 94%   Direction: 230°SW
Pressure: 29.88"   Gusts: NA
Location:  41.6561°N, 85.3683°W
Report Text: KIRS 251155Z AUTO 23007KT 5SM BR OVC010 12/11 A2988 RMK AO2
Loading
Personal Weather Stations






























Interactive Weather Map New forecast layout! Learn more

10-Day Weather Forecast

Advertisements
Track Severe Weather on mobile